Leyland, United Kingdom

9:59 PM BST on September 29, 2016 (GMT +0100)
| | Change Station

Elev -9999 ft 0.00 °N, 0.00 °E | Updated

Partly Cloudy
Partly Cloudy
48 °F
Feels Like 48 °F
N
12
Wind Variable Wind from WSW
Gusts 18 mph

Today
High -- | Low -- °F
--% Chance of Precip.
Yesterday
High -- | Low -- °F
Precip. -- in
Pressure 29.89 in
Visibility 6.2 miles
Clouds Few 1600 ft
Scattered Clouds 3400 ft
Dew Point 44 °F
Humidity 83%
Rainfall --
Snow Depth Not available.
7:09 AM 6:51 PM
Waning Crescent, 1% visible
METAR EGCC 292050Z 22009KT 9999 FEW016 SCT034 10/09 Q1012 RETS RERA TEMPO SHRA
Pressure 29.89 in
Visibility 6.2 miles
Clouds Few 1600 ft
Scattered Clouds 3400 ft
Dew Point 44 °F
Humidity 83%
Rainfall --
Snow Depth Not available.
7:09 AM 6:51 PM
Waning Crescent, 1% visible
METAR EGCC 292050Z 22009KT 9999 FEW016 SCT034 10/09 Q1012 RETS RERA TEMPO SHRA

10-Day Weather Forecast

×

Almanac

Astronomy

Sep. 29, 2016 Rise Set
Actual Time
Civil Twilight
Nautical Twilight
Astronomical Twilight
Moon
Length of Visible Light
Length of Day
Tomorrow will be .
, % of the Moon is Illuminated

Today's Extremes

Country Highs Country Lows

Community

WunderPhotos

Upload Photos

1,942,564 photos uploaded!

WunderBlog® & News

Nearby

Air Quality

  Air Quality AQ Index Pollutant
Not available.

Snow Depth

Station Depth Elevation

Earthquake Activity

City Distance Mag. Time & Date
Minimum magnitude displayed is 2.5.

Coastal Water Temperatures

Place Temperature

Stations

Nearby Weather Stations

Station Location Temp. Windchill Dew Point Humidity Wind Precip. Elev Updated Type